Time;durP1;ratioP1;P1;durP2;ratioP2;P2;SDS_P1;SDS_P2;PMS_P1;PMS_P2;Temp;Humidity;BMP_temperature;BMP_pressure;BME280_temperature;BME280_humidity;BME280_pressure;Samples;Min_cycle;Max_cycle;Signal;HPM_P1;HPM_P2
2022/04/18 00:02:13;;;;;;;18.15;8.48;;;2.80;87.90;;;;;;5208006;28;20075;-73
2022/04/18 00:04:45;;;;;;;15.18;8.68;;;2.70;89.20;;;;;;5211553;28;20061;-75
2022/04/18 00:07:18;;;;;;;10.85;7.95;;;2.50;90.40;;;;;;5210370;28;20347;-75
2022/04/18 00:09:52;;;;;;;11.10;8.30;;;2.40;91.00;;;;;;5210403;28;20056;-75
2022/04/18 00:12:24;;;;;;;13.00;7.90;;;2.50;91.40;;;;;;5200690;28;20045;-74
2022/04/18 00:14:57;;;;;;;13.00;8.20;;;2.50;91.50;;;;;;5210842;28;20047;-74
2022/04/18 00:17:30;;;;;;;10.35;7.78;;;2.50;91.60;;;;;;5211103;28;20045;-74
2022/04/18 00:20:03;;;;;;;11.90;7.38;;;2.50;91.90;;;;;;5211694;28;20045;-76
2022/04/18 00:22:36;;;;;;;;;;;2.50;92.10;;;;;;5212985;28;20848;-74
2022/04/18 00:25:09;;;;;;;14.20;8.48;;;2.30;95.50;;;;;;5213881;28;19924;-74
2022/04/18 00:27:41;;;;;;;13.73;7.50;;;2.30;92.70;;;;;;5197262;28;20661;-75
2022/04/18 00:30:14;;;;;;;12.50;7.32;;;2.30;93.20;;;;;;5209181;28;20509;-73
2022/04/18 00:32:46;;;;;;;13.40;7.70;;;2.30;93.50;;;;;;5213038;28;20041;-75
2022/04/18 00:35:19;;;;;;;10.45;6.97;;;2.30;93.90;;;;;;5219242;28;20048;-73
2022/04/18 00:37:51;;;;;;;13.02;8.27;;;2.20;94.10;;;;;;5209320;28;20642;-73
2022/04/18 00:40:24;;;;;;;10.45;7.53;;;2.30;94.40;;;;;;5219854;28;20561;-75
2022/04/18 00:43:04;;;;;;;11.48;7.95;;;2.30;94.60;;;;;;5214270;28;20052;-74
2022/04/18 00:45:36;;;;;;;13.32;7.68;;;2.30;95.30;;;;;;5214147;28;20044;-74
2022/04/18 00:48:09;;;;;;;10.82;8.23;;;2.30;94.80;;;;;;5207565;28;20471;-73
2022/04/18 00:50:42;;;;;;;14.13;8.07;;;2.30;95.00;;;;;;5210055;28;21787;-73
2022/04/18 00:53:14;;;;;;;10.55;7.18;;;2.30;95.30;;;;;;5206010;28;20093;-74
2022/04/18 00:55:47;;;;;;;11.73;8.15;;;2.20;95.50;;;;;;5214356;28;20144;-74
2022/04/18 00:58:20;;;;;;;10.10;7.50;;;2.30;95.80;;;;;;5205488;28;20052;-74
2022/04/18 01:00:53;;;;;;;12.60;7.65;;;2.20;96.30;;;;;;5209311;28;20059;-74
2022/04/18 01:03:30;;;;;;;12.52;8.68;;;2.10;96.90;;;;;;5209334;28;20864;-74
2022/04/18 01:06:03;;;;;;;15.40;7.75;;;2.00;98.00;;;;;;5210878;28;20060;-74
2022/04/18 01:08:36;;;;;;;11.60;7.50;;;2.10;98.00;;;;;;5214955;28;21242;-74
2022/04/18 01:11:10;;;;;;;13.83;8.10;;;2.10;97.80;;;;;;5214447;28;20587;-75
2022/04/18 01:14:11;;;;;;;15.27;8.43;;;2.10;97.70;;;;;;5206195;28;20806;-74
2022/04/18 01:17:06;;;;;;;12.77;8.10;;;2.10;97.90;;;;;;5211972;28;20041;-74
2022/04/18 01:20:11;;;;;;;10.07;7.57;;;2.10;97.60;;;;;;5215537;28;20575;-74
2022/04/18 01:22:58;;;;;;;13.35;8.30;;;2.10;97.70;;;;;;5193992;28;20049;-75
2022/04/18 01:28:59;;;;;;;12.43;8.00;;;2.00;98.90;;;;;;5218816;28;20045;-74
2022/04/18 01:31:38;;;;;;;12.63;8.55;;;1.90;99.50;;;;;;5194974;28;20408;-73
2022/04/18 01:34:10;;;;;;;15.48;8.73;;;1.90;99.90;;;;;;5218901;28;20522;-72
2022/04/18 01:36:43;;;;;;;14.13;8.75;;;1.80;99.90;;;;;;5215837;28;20076;-72
2022/04/18 01:39:17;;;;;;;13.60;8.98;;;1.90;99.90;;;;;;5211488;28;20041;-73
2022/04/18 01:41:49;;;;;;;15.67;8.33;;;2.00;99.90;;;;;;5214402;28;20215;-75
2022/04/18 01:44:22;;;;;;;17.65;8.90;;;1.90;99.90;;;;;;5212460;28;20044;-73
2022/04/18 01:46:55;;;;;;;15.50;9.07;;;1.90;99.90;;;;;;5200662;28;20071;-75
2022/04/18 01:49:28;;;;;;;;;;;2.00;99.90;;;;;;5217188;28;20045;-72
2022/04/18 01:52:01;;;;;;;16.00;8.82;;;1.90;99.90;;;;;;5204879;28;19943;-74
2022/04/18 01:54:33;;;;;;;17.10;9.73;;;1.90;99.30;;;;;;5212664;28;20049;-75
2022/04/18 01:57:06;;;;;;;14.00;8.80;;;1.90;99.80;;;;;;5210729;28;20055;-74
2022/04/18 01:59:42;;;;;;;14.40;9.05;;;1.90;99.90;;;;;;5200437;28;20065;-75
2022/04/18 02:02:15;;;;;;;15.00;9.05;;;1.90;99.90;;;;;;5205228;28;20044;-75
2022/04/18 02:04:48;;;;;;;13.15;8.70;;;1.90;99.90;;;;;;5208967;28;20075;-75
2022/04/18 02:07:21;;;;;;;13.00;8.32;;;1.90;99.80;;;;;;5216571;28;20407;-74
2022/04/18 02:09:56;;;;;;;16.50;9.25;;;1.80;99.80;;;;;;5223739;28;20124;-74
2022/04/18 02:12:29;;;;;;;17.35;9.02;;;1.80;99.90;;;;;;5212462;28;20819;-73
2022/04/18 02:15:07;;;;;;;12.10;8.70;;;1.70;99.90;;;;;;5215080;28;20063;-74
2022/04/18 02:17:49;;;;;;;17.77;8.13;;;1.60;99.90;;;;;;5212783;28;20103;-73
2022/04/18 02:20:22;;;;;;;14.98;8.63;;;1.60;99.90;;;;;;5210757;28;21226;-73
2022/04/18 02:22:56;;;;;;;11.73;7.95;;;1.70;99.90;;;;;;5202182;28;20610;-73
2022/04/18 02:25:28;;;;;;;16.80;9.20;;;1.80;99.90;;;;;;5208296;28;20037;-73
2022/04/18 02:28:06;;;;;;;14.48;8.43;;;1.70;99.90;;;;;;5204644;28;20045;-73
2022/04/18 02:30:48;;;;;;;16.58;8.65;;;1.70;99.90;;;;;;5207655;28;20049;-73
2022/04/18 02:33:21;;;;;;;16.73;8.57;;;1.60;99.90;;;;;;5201313;28;20115;-73
2022/04/18 02:35:56;;;;;;;12.63;8.45;;;1.60;99.90;;;;;;5199144;28;20525;-74
2022/04/18 02:38:30;;;;;;;12.68;8.88;;;1.60;99.90;;;;;;5208020;28;20056;-74
2022/04/18 02:41:03;;;;;;;16.42;8.90;;;1.60;99.90;;;;;;5218588;28;20040;-74
2022/04/18 02:43:35;;;;;;;11.05;7.82;;;1.60;99.90;;;;;;5217551;28;20044;-74
2022/04/18 02:46:13;;;;;;;13.20;8.07;;;1.60;99.90;;;;;;5217349;28;20049;-74
2022/04/18 02:48:53;;;;;;;13.77;8.10;;;1.60;99.90;;;;;;5210403;28;20067;-74
2022/04/18 02:51:27;;;;;;;11.40;7.90;;;1.50;99.90;;;;;;5216695;28;20052;-73
2022/04/18 02:54:05;;;;;;;12.88;8.60;;;1.50;99.90;;;;;;5211513;28;20041;-74
2022/04/18 02:56:41;;;;;;;12.55;8.80;;;1.50;99.90;;;;;;5222659;28;20037;-74
2022/04/18 02:59:13;;;;;;;13.25;9.05;;;1.50;99.90;;;;;;5215351;28;20064;-73
2022/04/18 03:01:46;;;;;;;13.27;9.20;;;1.40;99.90;;;;;;5226305;28;20063;-74
2022/04/18 03:04:18;;;;;;;13.25;8.73;;;1.30;99.90;;;;;;5221299;28;20044;-73
2022/04/18 03:06:52;;;;;;;15.15;8.65;;;1.20;99.90;;;;;;5215606;28;20041;-73
2022/04/18 03:09:24;;;;;;;11.77;8.20;;;1.20;99.90;;;;;;5219812;28;20049;-73
2022/04/18 03:11:57;;;;;;;12.75;9.02;;;1.30;99.90;;;;;;5217861;28;20529;-73
2022/04/18 03:14:30;;;;;;;13.90;8.40;;;1.30;99.90;;;;;;5199848;28;20045;-73
2022/04/18 03:17:05;;;;;;;12.45;8.20;;;1.20;99.90;;;;;;5207433;28;20412;-73
2022/04/18 03:19:38;;;;;;;12.57;9.18;;;1.20;99.90;;;;;;5211541;28;20658;-73
2022/04/18 03:22:11;;;;;;;15.23;8.98;;;1.20;99.90;;;;;;5202755;28;20171;-73
2022/04/18 03:24:48;;;;;;;10.43;7.80;;;1.20;99.90;;;;;;5199508;28;20068;-74
2022/04/18 03:27:26;;;;;;;13.60;8.90;;;1.20;99.90;;;;;;5208249;28;20053;-73
2022/04/18 03:29:58;;;;;;;14.45;9.23;;;1.20;99.90;;;;;;5194217;28;20532;-73
2022/04/18 03:32:38;;;;;;;13.93;9.38;;;1.20;99.90;;;;;;5208465;28;20737;-73
2022/04/18 03:35:11;;;;;;;15.60;9.38;;;1.10;99.90;;;;;;5196632;28;20412;-74
2022/04/18 03:40:36;;;;;;;17.88;9.77;;;1.10;99.90;;;;;;5204261;28;20059;-73
2022/04/18 03:43:08;;;;;;;13.88;8.95;;;1.10;99.90;;;;;;5207131;28;20049;-72
2022/04/18 03:45:41;;;;;;;13.98;8.93;;;1.00;99.90;;;;;;5210969;28;20041;-73
2022/04/18 03:48:14;;;;;;;12.23;9.30;;;1.10;99.90;;;;;;5205225;28;20397;-72
2022/04/18 03:50:47;;;;;;;17.87;8.83;;;1.00;99.90;;;;;;5188581;28;20790;-72
2022/04/18 03:53:19;;;;;;;15.68;9.05;;;1.00;99.90;;;;;;5212549;28;20048;-73
2022/04/18 03:55:52;;;;;;;14.10;9.13;;;1.00;99.90;;;;;;5200067;28;20052;-73
2022/04/18 03:58:45;;;;;;;13.70;7.97;;;0.90;99.90;;;;;;5208291;28;20045;-73
2022/04/18 04:01:19;;;;;;;15.40;8.85;;;0.90;99.90;;;;;;5196014;28;20504;-73
2022/04/18 04:03:52;;;;;;;13.60;8.15;;;0.90;99.90;;;;;;5196461;28;25318;-73
2022/04/18 04:06:26;;;;;;;14.23;9.07;;;0.90;99.90;;;;;;5186162;28;20045;-72
2022/04/18 04:08:59;;;;;;;16.63;9.57;;;0.90;99.90;;;;;;5203194;28;20615;-72
2022/04/18 04:11:38;;;;;;;15.98;9.27;;;0.90;99.90;;;;;;5195417;28;20083;-73
2022/04/18 04:14:11;;;;;;;13.85;9.35;;;0.90;99.90;;;;;;5204175;28;20047;-74
2022/04/18 04:16:44;;;;;;;11.57;9.02;;;0.80;99.90;;;;;;5197248;28;20049;-73
2022/04/18 04:19:16;;;;;;;17.58;9.98;;;0.90;99.90;;;;;;5185170;28;20037;-72
2022/04/18 04:21:49;;;;;;;13.40;8.50;;;0.90;99.90;;;;;;5195451;28;20579;-72
2022/04/18 04:24:21;;;;;;;16.02;9.00;;;1.00;99.90;;;;;;5206813;28;20041;-72
2022/04/18 04:26:56;;;;;;;13.15;8.88;;;1.00;99.90;;;;;;5212457;28;20055;-74
2022/04/18 04:29:29;;;;;;;11.68;8.80;;;1.00;99.90;;;;;;5193003;28;20045;-74
2022/04/18 04:32:09;;;;;;;15.95;8.70;;;1.00;99.90;;;;;;5198889;28;20051;-72
2022/04/18 04:34:44;;;;;;;13.23;8.80;;;0.90;99.90;;;;;;5191760;28;20063;-73
2022/04/18 04:37:41;;;;;;;14.02;9.35;;;0.90;99.90;;;;;;5185917;28;20067;-72
2022/04/18 04:40:36;;;;;;;13.77;9.82;;;0.90;99.90;;;;;;5202096;28;20598;-72
2022/04/18 04:43:11;;;;;;;15.98;9.32;;;0.80;99.90;;;;;;5211786;28;20400;-72
2022/04/18 04:45:49;;;;;;;19.05;9.85;;;0.90;99.90;;;;;;5190749;28;20349;-73
2022/04/18 04:48:31;;;;;;;13.40;9.65;;;0.90;99.90;;;;;;5189689;28;20049;-72
2022/04/18 04:51:10;;;;;;;14.25;8.90;;;0.90;99.90;;;;;;5207769;28;20044;-72
2022/04/18 04:53:42;;;;;;;12.68;8.68;;;0.90;99.90;;;;;;5208049;28;20119;-72
2022/04/18 04:56:21;;;;;;;14.23;9.23;;;0.90;99.90;;;;;;5200815;28;20052;-72
2022/04/18 04:58:54;;;;;;;12.82;9.15;;;1.00;99.90;;;;;;5203994;28;20060;-73
2022/04/18 05:01:27;;;;;;;16.55;8.60;;;1.00;99.90;;;;;;5172020;28;20599;-73
2022/04/18 05:04:06;;;;;;;15.07;9.57;;;1.10;99.90;;;;;;5202081;28;20447;-73
2022/04/18 05:06:40;;;;;;;17.10;10.85;;;1.10;99.90;;;;;;5212972;28;20068;-72
2022/04/18 05:09:18;;;;;;;14.05;8.88;;;1.10;99.90;;;;;;5204708;28;20048;-72
2022/04/18 05:11:52;;;;;;;12.02;8.95;;;1.20;99.90;;;;;;5209942;28;20047;-73
2022/04/18 05:14:26;;;;;;;15.63;9.52;;;1.20;99.90;;;;;;5198201;28;20049;-72
2022/04/18 05:17:06;;;;;;;15.82;9.57;;;1.30;99.90;;;;;;5208433;28;20044;-73
2022/04/18 05:19:45;;;;;;;13.65;9.40;;;1.30;99.90;;;;;;5181947;28;20132;-73
2022/04/18 05:22:26;;;;;;;17.30;9.93;;;1.40;99.90;;;;;;5204913;28;20056;-73
2022/04/18 05:24:59;;;;;;;14.02;9.63;;;1.30;99.90;;;;;;5192707;28;20051;-72
2022/04/18 05:27:42;;;;;;;14.80;10.45;;;1.40;99.90;;;;;;5199150;28;20072;-73
2022/04/18 05:30:30;;;;;;;16.42;10.60;;;1.40;99.90;;;;;;5188572;28;20699;-72
2022/04/18 05:33:03;;;;;;;16.73;10.07;;;1.50;99.90;;;;;;5190793;28;20051;-72
2022/04/18 05:35:41;;;;;;;13.65;9.77;;;1.60;99.90;;;;;;5198720;28;20056;-72
2022/04/18 05:38:14;;;;;;;16.38;9.68;;;1.70;99.90;;;;;;5219032;28;20052;-72
2022/04/18 05:41:00;;;;;;;16.55;10.52;;;1.80;99.90;;;;;;5208572;28;20962;-73
2022/04/18 05:43:33;;;;;;;;;;;1.90;99.90;;;;;;5183585;28;20516;-72
2022/04/18 05:46:10;;;;;;;15.88;9.95;;;1.90;99.90;;;;;;5174504;28;19936;-73
2022/04/18 05:48:43;;;;;;;14.40;10.27;;;2.00;99.90;;;;;;5207721;28;20051;-73
2022/04/18 05:51:16;;;;;;;13.20;9.97;;;2.10;99.90;;;;;;5206114;28;20033;-72
2022/04/18 05:53:49;;;;;;;17.45;10.82;;;2.20;99.90;;;;;;5194713;28;20309;-72
2022/04/18 05:56:27;;;;;;;16.45;10.50;;;2.30;99.90;;;;;;5200046;28;20049;-72
2022/04/18 05:59:02;;;;;;;14.63;10.27;;;2.50;99.90;;;;;;5207706;28;20061;-72
2022/04/18 06:01:59;;;;;;;13.77;10.25;;;2.70;99.90;;;;;;5176966;28;20048;-73
2022/04/18 06:04:39;;;;;;;16.42;10.27;;;2.80;99.90;;;;;;5204637;28;20085;-73
2022/04/18 06:07:39;;;;;;;14.32;9.60;;;3.00;99.90;;;;;;5204382;28;20433;-72
2022/04/18 06:10:30;;;;;;;14.75;11.05;;;3.20;99.90;;;;;;5197967;28;20055;-72
2022/04/18 06:13:32;;;;;;;16.05;11.05;;;3.40;99.90;;;;;;5207593;28;20055;-72
2022/04/18 06:16:07;;;;;;;16.25;10.68;;;3.60;99.90;;;;;;5184627;28;20084;-72
2022/04/18 06:18:40;;;;;;;19.70;11.23;;;3.80;99.90;;;;;;5225278;28;20057;-72
2022/04/18 06:21:15;;;;;;;13.38;10.18;;;3.90;99.50;;;;;;5199587;28;20291;-73
2022/04/18 06:23:50;;;;;;;14.27;10.05;;;4.10;98.50;;;;;;5210298;28;20059;-69
2022/04/18 06:26:46;;;;;;;12.50;9.10;;;4.30;97.90;;;;;;5209752;28;20060;-73
2022/04/18 06:29:19;;;;;;;13.52;9.60;;;4.50;96.90;;;;;;5195306;28;20922;-75
2022/04/18 06:31:54;;;;;;;12.95;9.43;;;4.60;95.00;;;;;;5208555;28;20136;-75
2022/04/18 06:34:30;;;;;;;11.13;9.07;;;4.80;94.90;;;;;;5196189;28;20060;-75
2022/04/18 06:37:12;;;;;;;;;;;4.90;93.60;;;;;;5203663;28;20055;-75
2022/04/18 06:40:08;;;;;;;12.07;9.27;;;5.00;93.10;;;;;;5184585;28;19929;-75
2022/04/18 06:42:51;;;;;;;13.55;8.75;;;5.20;93.00;;;;;;5184631;28;20606;-74
2022/04/18 06:45:32;;;;;;;12.82;8.57;;;5.40;91.90;;;;;;5203932;28;20558;-75
2022/04/18 06:48:06;;;;;;;13.60;8.35;;;5.60;90.90;;;;;;5192329;28;20048;-74
2022/04/18 06:50:58;;;;;;;12.68;8.50;;;5.80;90.20;;;;;;5212253;28;20048;-75
2022/04/18 06:53:54;;;;;;;10.43;8.30;;;6.00;89.10;;;;;;5191308;28;20053;-74
2022/04/18 06:57:01;;;;;;;11.20;8.60;;;6.20;88.00;;;;;;5190620;28;20525;-74
2022/04/18 06:59:46;;;;;;;11.00;8.38;;;6.30;87.00;;;;;;5208652;28;20040;-74
2022/04/18 07:02:20;;;;;;;10.05;7.80;;;6.50;86.30;;;;;;5210508;28;20040;-74
2022/04/18 07:04:53;;;;;;;10.63;7.63;;;6.70;85.70;;;;;;5214244;28;20053;-75
2022/04/18 07:07:26;;;;;;;9.48;6.60;;;6.90;82.40;;;;;;5196221;28;20408;-74
2022/04/18 07:10:01;;;;;;;9.65;6.85;;;7.00;81.20;;;;;;5209991;28;20041;-74
2022/04/18 07:12:34;;;;;;;10.52;7.07;;;7.20;79.90;;;;;;5211566;28;20033;-75
2022/04/18 07:15:06;;;;;;;10.05;6.43;;;7.40;78.10;;;;;;5215984;28;20115;-74
2022/04/18 07:17:41;;;;;;;8.55;6.40;;;7.50;77.90;;;;;;5192664;28;20061;-78
2022/04/18 07:20:15;;;;;;;8.57;5.63;;;7.70;77.10;;;;;;5202505;28;20159;-74
2022/04/18 07:22:48;;;;;;;8.65;6.63;;;7.90;74.70;;;;;;5206467;28;20052;-74
2022/04/18 07:25:21;;;;;;;8.52;6.65;;;8.00;74.30;;;;;;5219449;28;20052;-74
2022/04/18 07:28:08;;;;;;;9.48;5.70;;;8.10;74.40;;;;;;5187817;28;20739;-74
2022/04/18 07:30:42;;;;;;;6.85;5.22;;;8.30;72.60;;;;;;5206335;28;20044;-74
2022/04/18 07:33:15;;;;;;;7.80;5.45;;;8.50;71.80;;;;;;5214932;28;20051;-74
2022/04/18 07:35:50;;;;;;;9.70;5.60;;;8.60;70.60;;;;;;5214288;28;20061;-75
2022/04/18 07:41:15;;;;;;;6.25;4.80;;;8.80;68.20;;;;;;5198998;28;20541;-74
2022/04/18 07:43:55;;;;;;;7.45;5.05;;;8.90;68.70;;;;;;5187877;28;25594;-74
2022/04/18 07:46:28;;;;;;;6.90;5.25;;;8.90;67.90;;;;;;5205269;28;20044;-74
2022/04/18 07:49:04;;;;;;;6.20;4.85;;;9.00;67.60;;;;;;5198066;28;20049;-72
2022/04/18 07:51:42;;;;;;;8.55;4.22;;;9.20;67.20;;;;;;5180025;28;20990;-73
2022/04/18 07:54:25;;;;;;;6.07;4.33;;;9.30;65.80;;;;;;5201469;28;20049;-73
2022/04/18 07:56:59;;;;;;;;;;;9.40;65.80;;;;;;5195554;28;20727;-72
2022/04/18 07:59:59;;;;;;;7.35;4.30;;;9.40;61.40;;;;;;5203961;28;20403;-73
2022/04/18 08:02:35;;;;;;;6.65;4.38;;;9.50;64.40;;;;;;5189052;28;20049;-75
2022/04/18 08:05:14;;;;;;;6.38;3.95;;;9.60;63.50;;;;;;5197842;28;20045;-75
2022/04/18 08:08:13;;;;;;;7.60;4.65;;;9.70;63.80;;;;;;5197688;28;20053;-75
2022/04/18 08:10:46;;;;;;;4.60;4.00;;;9.80;63.50;;;;;;5196835;28;20739;-74
2022/04/18 08:13:19;;;;;;;6.87;4.20;;;10.00;63.70;;;;;;5189444;28;20068;-74
2022/04/18 08:16:18;;;;;;;5.50;3.58;;;10.10;62.60;;;;;;5217165;28;20068;-75
2022/04/18 08:18:56;;;;;;;5.78;3.95;;;10.10;60.70;;;;;;5221311;28;20527;-74
2022/04/18 08:21:31;;;;;;;5.15;3.50;;;10.00;60.10;;;;;;5222331;28;20044;-74
2022/04/18 08:24:10;;;;;;;8.90;3.85;;;10.00;59.50;;;;;;5220588;28;20048;-75
2022/04/18 08:26:45;;;;;;;5.53;3.78;;;10.00;59.60;;;;;;5221859;28;20059;-74
2022/04/18 08:29:24;;;;;;;7.60;3.45;;;10.10;60.20;;;;;;5237525;28;20045;-74
2022/04/18 08:32:22;;;;;;;8.10;2.90;;;10.20;59.70;;;;;;5206201;28;20401;-74
2022/04/18 08:34:57;;;;;;;5.43;3.00;;;10.40;57.80;;;;;;5229019;28;20056;-74
2022/04/18 08:37:30;;;;;;;4.68;3.00;;;10.40;56.90;;;;;;5221868;28;20060;-74
2022/04/18 08:40:22;;;;;;;4.35;3.25;;;10.50;57.00;;;;;;5219133;28;20425;-74
2022/04/18 08:42:59;;;;;;;6.13;2.90;;;10.40;55.90;;;;;;5218882;28;20115;-74
2022/04/18 08:45:37;;;;;;;6.82;3.58;;;10.50;56.20;;;;;;5228364;28;20047;-74
2022/04/18 08:53:59;;;;;;;5.82;3.15;;;10.70;56.40;;;;;;5235521;28;20045;-73
2022/04/18 08:56:32;;;;;;;5.70;3.40;;;10.70;55.60;;;;;;5204798;28;20072;-75
2022/04/18 08:59:05;;;;;;;5.47;3.13;;;10.70;55.50;;;;;;5212694;28;20036;-73
2022/04/18 09:01:50;;;;;;;4.32;3.30;;;10.70;56.20;;;;;;5220974;28;20468;-74
2022/04/18 09:04:36;;;;;;;6.95;3.53;;;10.90;54.60;;;;;;5209724;28;20040;-74
2022/04/18 09:07:10;;;;;;;4.93;3.08;;;10.80;55.10;;;;;;5217349;28;20959;-74
2022/04/18 09:09:48;;;;;;;5.20;3.08;;;10.90;55.60;;;;;;5218091;28;20064;-73
2022/04/18 09:12:24;;;;;;;5.82;3.05;;;11.00;55.50;;;;;;5217972;28;20059;-74
2022/04/18 09:15:38;;;;;;;4.78;2.83;;;11.00;54.80;;;;;;5219341;28;20515;-73
2022/04/18 09:18:17;;;;;;;6.40;3.78;;;11.00;54.80;;;;;;5219961;28;20052;-74
2022/04/18 09:21:17;;;;;;;5.60;3.10;;;11.00;54.40;;;;;;5221773;28;20076;-74
2022/04/18 09:23:50;;;;;;;5.25;3.20;;;11.00;54.10;;;;;;5205427;28;20056;-74
2022/04/18 09:26:36;;;;;;;5.68;3.47;;;11.00;54.40;;;;;;5205087;28;20059;-73
2022/04/18 09:29:11;;;;;;;4.95;3.00;;;11.00;54.30;;;;;;5195702;28;20655;-74
2022/04/18 09:31:45;;;;;;;4.55;2.72;;;11.10;52.30;;;;;;5225643;28;20056;-73
2022/04/18 09:34:31;;;;;;;4.75;3.15;;;11.00;52.40;;;;;;5229750;28;20040;-74
2022/04/18 09:37:11;;;;;;;;;;;11.00;52.70;;;;;;5222163;28;20052;-74
2022/04/18 09:39:52;;;;;;;4.85;3.17;;;11.10;51.90;;;;;;5214698;28;20288;-74
2022/04/18 09:42:27;;;;;;;6.38;3.45;;;11.10;52.80;;;;;;5235487;28;20044;-73
2022/04/18 09:45:08;;;;;;;3.43;2.63;;;11.20;53.10;;;;;;5227931;28;20053;-74
2022/04/18 09:47:43;;;;;;;6.75;3.13;;;11.20;52.70;;;;;;5198281;28;20129;-73
2022/04/18 09:53:26;;;;;;;6.68;3.20;;;11.50;53.20;;;;;;5219927;28;20045;-74
2022/04/18 09:55:58;;;;;;;6.07;3.07;;;11.60;52.50;;;;;;5221488;28;20045;-74
2022/04/18 09:58:32;;;;;;;4.68;2.80;;;11.60;50.20;;;;;;5219573;28;20286;-74
2022/04/18 10:01:25;;;;;;;7.20;2.88;;;11.60;51.30;;;;;;5222441;28;20047;-75
2022/04/18 10:03:59;;;;;;;6.35;3.22;;;11.70;51.90;;;;;;5215284;28;20080;-74
2022/04/18 10:06:32;;;;;;;;;;;11.80;51.90;;;;;;5219540;28;20143;-74
2022/04/18 10:09:04;;;;;;;11.05;3.33;;;11.70;47.80;;;;;;5223283;28;19933;-74
2022/04/18 10:11:37;;;;;;;4.25;2.97;;;11.70;51.00;;;;;;5213945;28;20556;-74
2022/04/18 10:14:10;;;;;;;4.40;2.92;;;11.80;51.00;;;;;;5218676;28;20049;-74
2022/04/18 10:16:44;;;;;;;4.78;2.78;;;11.80;51.00;;;;;;5218186;28;20068;-73
2022/04/18 10:19:50;;;;;;;6.13;3.10;;;11.80;50.40;;;;;;5195675;28;20044;-74
2022/04/18 10:22:31;;;;;;;5.50;3.28;;;11.90;49.30;;;;;;5212510;28;20048;-74
2022/04/18 10:25:48;;;;;;;6.78;3.08;;;11.80;49.40;;;;;;5214253;28;20041;-74
2022/04/18 10:28:33;;;;;;;5.45;2.83;;;11.80;47.80;;;;;;5200224;28;21011;-74
2022/04/18 10:31:23;;;;;;;5.00;2.55;;;11.80;48.80;;;;;;5217350;28;20045;-73
2022/04/18 10:33:57;;;;;;;3.55;2.33;;;11.80;47.70;;;;;;5214773;28;20056;-74
2022/04/18 10:36:35;;;;;;;3.10;2.28;;;12.00;48.40;;;;;;5219150;28;20036;-74
2022/04/18 10:39:08;;;;;;;5.97;2.88;;;12.10;47.30;;;;;;5207499;28;20411;-74
2022/04/18 10:41:45;;;;;;;4.57;2.58;;;12.20;49.30;;;;;;5218385;28;20048;-74
2022/04/18 10:44:19;;;;;;;4.10;2.78;;;12.30;48.70;;;;;;5219746;28;20044;-75
2022/04/18 10:46:51;;;;;;;;;;;12.40;48.70;;;;;;5220938;28;20568;-74
2022/04/18 10:49:24;;;;;;;5.15;3.17;;;12.40;47.50;;;;;;5220738;28;19925;-74
2022/04/18 10:51:57;;;;;;;4.60;2.38;;;12.40;48.30;;;;;;5220756;28;20049;-73
2022/04/18 10:54:30;;;;;;;7.35;2.53;;;12.50;47.50;;;;;;5227118;28;20044;-73
2022/04/18 10:57:12;;;;;;;3.67;2.70;;;12.50;47.50;;;;;;5225361;28;20061;-73
2022/04/18 10:59:46;;;;;;;3.55;2.55;;;12.60;47.90;;;;;;5223756;28;20056;-73
2022/04/18 11:02:39;;;;;;;4.25;2.60;;;12.80;47.00;;;;;;5223476;28;20529;-73
2022/04/18 11:05:11;;;;;;;4.70;3.05;;;13.00;46.10;;;;;;5217019;28;20067;-74
2022/04/18 11:07:44;;;;;;;6.13;2.97;;;13.00;46.20;;;;;;5221005;28;20049;-73
2022/04/18 11:10:22;;;;;;;4.97;2.90;;;13.10;45.90;;;;;;5218961;28;20040;-73
2022/04/18 11:13:00;;;;;;;5.30;3.05;;;13.00;45.30;;;;;;5215036;28;20626;-73
2022/04/18 11:15:33;;;;;;;2.78;1.98;;;13.10;45.00;;;;;;5228801;28;20485;-73
2022/04/18 11:18:09;;;;;;;3.72;2.38;;;13.40;44.50;;;;;;5223699;28;20033;-74
2022/04/18 11:20:42;;;;;;;3.47;2.45;;;13.90;44.30;;;;;;5221245;28;20048;-74
2022/04/18 11:23:16;;;;;;;4.68;2.78;;;14.30;44.30;;;;;;5229932;28;20049;-74
2022/04/18 11:25:58;;;;;;;4.55;2.53;;;14.80;43.10;;;;;;5223915;28;20040;-74
2022/04/18 11:28:32;;;;;;;3.83;2.67;;;15.00;43.00;;;;;;5231614;28;20591;-74
2022/04/18 11:31:18;;;;;;;6.15;3.00;;;15.10;43.10;;;;;;5213446;28;20045;-73
2022/04/18 11:34:01;;;;;;;5.47;3.38;;;15.50;41.90;;;;;;5223676;28;20485;-74
2022/04/18 11:36:35;;;;;;;4.18;2.40;;;15.70;42.80;;;;;;5228011;28;20053;-74
2022/04/18 11:39:11;;;;;;;3.47;2.45;;;15.90;42.60;;;;;;5198982;28;20044;-74
2022/04/18 11:41:47;;;;;;;4.85;2.85;;;16.10;41.20;;;;;;5213934;28;20076;-75
2022/04/18 11:44:20;;;;;;;3.50;2.30;;;16.10;41.20;;;;;;5224659;28;20559;-73
2022/04/18 11:47:04;;;;;;;3.35;2.50;;;16.20;41.30;;;;;;5206186;28;20063;-74
2022/04/18 11:49:40;;;;;;;6.10;3.38;;;16.10;41.50;;;;;;5206580;28;20393;-73
2022/04/18 11:52:22;;;;;;;;;;;16.10;40.90;;;;;;5220422;28;20048;-73
2022/04/18 11:55:01;;;;;;;2.92;2.22;;;16.10;39.30;;;;;;5195809;28;19935;-74
2022/04/18 11:57:38;;;;;;;4.22;2.67;;;16.30;40.10;;;;;;5194371;28;20048;-74
2022/04/18 12:00:13;;;;;;;3.40;2.38;;;16.40;40.10;;;;;;5197076;28;20053;-74
2022/04/18 12:08:32;;;;;;;3.65;2.33;;;16.80;39.10;;;;;;5219315;28;20045;-74
2022/04/18 12:11:10;;;;;;;6.00;2.60;;;17.10;39.30;;;;;;5218184;28;20053;-74
2022/04/18 12:13:47;;;;;;;3.33;2.40;;;17.40;38.80;;;;;;5213827;28;20048;-73
2022/04/18 12:16:26;;;;;;;5.35;2.47;;;17.30;38.30;;;;;;5201378;28;20052;-74
2022/04/18 12:18:59;;;;;;;4.07;2.92;;;17.40;39.90;;;;;;5218128;28;20108;-74
2022/04/18 12:21:34;;;;;;;3.33;2.30;;;17.50;38.70;;;;;;5218795;28;20036;-74
2022/04/18 12:24:09;;;;;;;3.72;2.50;;;17.40;38.70;;;;;;5214989;28;20052;-73
2022/04/18 12:26:42;;;;;;;4.97;2.50;;;17.80;37.70;;;;;;5225707;28;20060;-73
2022/04/18 12:29:14;;;;;;;4.93;3.33;;;17.80;37.10;;;;;;5221899;28;20040;-73
2022/04/18 12:31:46;;;;;;;3.33;2.33;;;18.20;37.20;;;;;;5221610;28;20048;-73
2022/04/18 12:34:21;;;;;;;2.43;2.23;;;18.00;36.30;;;;;;5229673;28;20049;-73
2022/04/18 12:36:59;;;;;;;5.13;2.67;;;17.90;36.80;;;;;;5205426;28;20508;-73
2022/04/18 12:39:34;;;;;;;5.15;3.20;;;18.00;36.70;;;;;;5222713;28;20049;-73
2022/04/18 12:42:10;;;;;;;3.05;2.53;;;18.40;37.60;;;;;;5196826;28;20056;-73
2022/04/18 12:44:43;;;;;;;5.03;2.78;;;18.60;35.70;;;;;;5223519;28;20048;-73
2022/04/18 12:47:21;;;;;;;4.15;2.78;;;18.60;36.20;;;;;;5194818;28;20614;-72
2022/04/18 12:50:08;;;;;;;3.35;2.28;;;18.80;36.00;;;;;;5227726;28;20067;-74
2022/04/18 12:52:46;;;;;;;5.75;2.60;;;18.90;34.70;;;;;;5221114;28;20048;-73
2022/04/18 12:55:29;;;;;;;5.55;3.97;;;18.80;35.50;;;;;;5221866;28;20033;-73
2022/04/18 12:58:01;;;;;;;3.70;2.72;;;18.60;36.80;;;;;;5222492;28;20052;-73
2022/04/18 13:00:37;;;;;;;4.22;2.42;;;18.80;36.50;;;;;;5218593;28;20040;-73
2022/04/18 13:03:10;;;;;;;2.63;1.90;;;18.60;36.60;;;;;;5220999;28;20048;-73
2022/04/18 13:05:45;;;;;;;2.85;2.38;;;18.80;37.40;;;;;;5222541;28;20069;-73
2022/04/18 13:08:17;;;;;;;4.95;2.28;;;18.80;37.00;;;;;;5207338;28;20056;-73
2022/04/18 13:10:55;;;;;;;4.03;2.47;;;18.90;37.10;;;;;;5222571;28;20075;-73
2022/04/18 13:13:28;;;;;;;2.60;1.95;;;19.00;36.80;;;;;;5219362;28;20044;-73
2022/04/18 13:16:22;;;;;;;4.28;3.20;;;18.90;37.00;;;;;;5218313;28;20041;-74
2022/04/18 13:19:00;;;;;;;3.88;2.17;;;19.20;37.60;;;;;;5186367;28;20515;-74
2022/04/18 13:21:33;;;;;;;2.60;1.95;;;19.40;36.40;;;;;;5220874;28;20676;-73
2022/04/18 13:24:10;;;;;;;1.95;1.73;;;19.50;36.90;;;;;;5220569;28;20071;-73
2022/04/18 13:26:47;;;;;;;6.65;2.28;;;19.50;36.50;;;;;;5228182;28;20055;-74
2022/04/18 13:29:19;;;;;;;2.10;1.83;;;19.60;36.40;;;;;;5227712;28;20053;-74
2022/04/18 13:31:54;;;;;;;3.20;2.00;;;19.80;37.40;;;;;;5217580;28;20051;-74
2022/04/18 13:34:30;;;;;;;3.28;2.08;;;20.00;36.00;;;;;;5206977;28;20048;-74
2022/04/18 13:37:11;;;;;;;3.95;2.05;;;19.70;36.10;;;;;;5217473;28;20052;-73
2022/04/18 13:39:47;;;;;;;2.25;1.83;;;19.70;36.60;;;;;;5196453;28;20049;-73
2022/04/18 13:42:20;;;;;;;4.75;1.92;;;19.70;37.30;;;;;;5195982;28;20049;-74
2022/04/18 13:45:00;;;;;;;4.18;2.17;;;19.60;36.50;;;;;;5222174;28;20044;-74
2022/04/18 13:47:42;;;;;;;2.20;1.65;;;19.90;36.40;;;;;;5211178;28;20048;-74
2022/04/18 13:50:18;;;;;;;3.67;2.55;;;19.70;35.70;;;;;;5219354;28;20052;-73
2022/04/18 13:52:51;;;;;;;2.63;2.07;;;19.50;36.40;;;;;;5216629;28;20044;-74
2022/04/18 13:55:24;;;;;;;3.25;2.10;;;19.60;36.90;;;;;;5188610;28;20045;-74
2022/04/18 13:57:57;;;;;;;5.38;2.28;;;19.90;36.30;;;;;;5203246;28;20045;-74
2022/04/18 14:00:29;;;;;;;3.00;1.83;;;19.90;36.70;;;;;;5217221;28;20056;-74
2022/04/18 14:03:04;;;;;;;2.67;2.03;;;20.00;36.30;;;;;;5229017;28;20052;-74
2022/04/18 14:05:38;;;;;;;2.65;1.70;;;20.00;36.40;;;;;;5220071;28;20052;-74
2022/04/18 14:08:16;;;;;;;2.75;2.03;;;20.30;36.50;;;;;;5219960;28;20052;-73